Queen Sapphire — 9V7564 — position and weather

sailwx.info

Track history (hours):
 
Tides and Currents Weather Stations Pressure Air Temp Water Temp Dewpoint Dewpoint Depression Visibility Wind Speed Wind Dir Waves Ship Positions

Queen Sapphire

Last reported at 2014-Sep-01 04:04 UTC. Time now 2014-Sep-24 00:24 UTC.
Position N 01°12' E 103°38'.
Warning: this ship's position is 22 days out of date.

Length 200 m; draft 9.4 m.

Type: Cargo ship. MMSI: 564254000.

Date/timePositionNaut miles runAvg speedWind from/ knotsBaromVisibWave heightAir tempDewpointWater temp
2014-Sep-01 04:04N 01°12' E 103°38'5 9.3
2014-Sep-01 03:30N 01°14' E 103°42'4 2.9
2014-Sep-01 02:10N 01°17' E 103°45'0 0.0
2014-Sep-01 01:28N 01°17' E 103°45'0 0.0
2014-Aug-31 23:04N 01°17' E 103°45'0 0.0
2014-Aug-31 22:22N 01°17' E 103°45'0 0.0
2014-Aug-31 21:28N 01°17' E 103°45'0 0.0
2014-Aug-31 20:21N 01°17' E 103°45'1 0.8
2014-Aug-31 19:33N 01°17' E 103°45'7 7.4
2014-Aug-31 18:33N 01°12' E 103°51'3 3.1
2014-Aug-31 17:31N 01°15' E 103°53'0 0.0
2014-Aug-31 16:25N 01°15' E 103°53'0 0.0
2014-Aug-31 15:25N 01°15' E 103°53'0 0.0
2014-Aug-31 14:31N 01°15' E 103°53'0 0.0
2014-Aug-31 13:19N 01°15' E 103°53'0 0.0
2014-Aug-31 12:31N 01°15' E 103°53'0 0.0
2014-Aug-31 11:31N 01°15' E 103°53'0 0.0
2014-Aug-31 10:31N 01°15' E 103°53'0 0.0
2014-Aug-31 09:31N 01°15' E 103°53'0 0.0
2014-Aug-31 08:28N 01°15' E 103°53'0 0.0
2014-Aug-31 07:19N 01°15' E 103°53'0 0.0
2014-Aug-31 06:31N 01°15' E 103°53'0 0.0
2014-Aug-31 05:25N 01°15' E 103°53'0 0.0
2014-Aug-31 04:25N 01°15' E 103°53'0 0.0
2014-Aug-31 03:19N 01°15' E 103°53'0 0.0
2014-Aug-31 02:22N 01°15' E 103°53'0 0.0
2014-Aug-31 01:28N 01°15' E 103°53'0 0.0
2014-Aug-31 00:25N 01°15' E 103°53'0 0.0
2014-Aug-30 23:31N 01°15' E 103°53'0 0.0
2014-Aug-30 22:31N 01°15' E 103°53'0 0.0
2014-Aug-30 21:31N 01°15' E 103°53'0 0.0
2014-Aug-30 20:31N 01°15' E 103°53'0 0.0
2014-Aug-30 19:31N 01°15' E 103°53'0 0.0
2014-Aug-30 18:31N 01°15' E 103°53'0 0.0
2014-Aug-30 17:31N 01°15' E 103°53'0 0.0
2014-Aug-30 16:31N 01°15' E 103°53'0 0.0
2014-Aug-30 15:31N 01°15' E 103°53'1 1.4
2014-Aug-30 14:33N 01°14' E 103°54'6 6.3
2014-Aug-30 13:33N 01°15' E 104°00'  
2014-Aug-23 03:33N 34°59' E 140°24'1514.0
2014-Aug-23 02:30N 35°09' E 140°37'1515.9
2014-Aug-23 01:33N 35°19' E 140°51'1615.0
2014-Aug-23 00:30N 35°31' E 141°03'1616.8
2014-Aug-22 23:33N 35°47' E 141°02'1716.7
2014-Aug-22 22:33N 36°03' E 140°57'  
Track history (hours):
 
Tides and Currents Weather Stations Pressure Air Temp Water Temp Dewpoint Dewpoint Depression Visibility Wind Speed Wind Dir Waves Ship Positions

Queen Sapphire

Last reported at 2014-Sep-01 04:04 UTC. Time now 2014-Sep-24 00:24 UTC.
Position N 01°12' E 103°38'.
Warning: this ship's position is 22 days out of date.

Length 200 m; draft 9.4 m.

Type: Cargo ship. MMSI: 564254000.

Date/timePositionNaut miles runAvg speedWind from/ knotsBaromVisibWave heightAir tempDewpointWater temp
2014-Sep-01 04:04N 01°12' E 103°38'5 9.3
2014-Sep-01 03:30N 01°14' E 103°42'4 2.9
2014-Sep-01 02:10N 01°17' E 103°45'0 0.0
2014-Sep-01 01:28N 01°17' E 103°45'0 0.0
2014-Aug-31 23:04N 01°17' E 103°45'0 0.0
2014-Aug-31 22:22N 01°17' E 103°45'0 0.0
2014-Aug-31 21:28N 01°17' E 103°45'0 0.0
2014-Aug-31 20:21N 01°17' E 103°45'1 0.8
2014-Aug-31 19:33N 01°17' E 103°45'7 7.4
2014-Aug-31 18:33N 01°12' E 103°51'3 3.1
2014-Aug-31 17:31N 01°15' E 103°53'0 0.0
2014-Aug-31 16:25N 01°15' E 103°53'0 0.0
2014-Aug-31 15:25N 01°15' E 103°53'0 0.0
2014-Aug-31 14:31N 01°15' E 103°53'0 0.0
2014-Aug-31 13:19N 01°15' E 103°53'0 0.0
2014-Aug-31 12:31N 01°15' E 103°53'0 0.0
2014-Aug-31 11:31N 01°15' E 103°53'0 0.0
2014-Aug-31 10:31N 01°15' E 103°53'0 0.0
2014-Aug-31 09:31N 01°15' E 103°53'0 0.0
2014-Aug-31 08:28N 01°15' E 103°53'0 0.0
2014-Aug-31 07:19N 01°15' E 103°53'0 0.0
2014-Aug-31 06:31N 01°15' E 103°53'0 0.0
2014-Aug-31 05:25N 01°15' E 103°53'0 0.0
2014-Aug-31 04:25N 01°15' E 103°53'0 0.0
2014-Aug-31 03:19N 01°15' E 103°53'0 0.0
2014-Aug-31 02:22N 01°15' E 103°53'0 0.0
2014-Aug-31 01:28N 01°15' E 103°53'0 0.0
2014-Aug-31 00:25N 01°15' E 103°53'0 0.0
2014-Aug-30 23:31N 01°15' E 103°53'0 0.0
2014-Aug-30 22:31N 01°15' E 103°53'0 0.0
2014-Aug-30 21:31N 01°15' E 103°53'0 0.0
2014-Aug-30 20:31N 01°15' E 103°53'0 0.0
2014-Aug-30 19:31N 01°15' E 103°53'0 0.0
2014-Aug-30 18:31N 01°15' E 103°53'0 0.0
2014-Aug-30 17:31N 01°15' E 103°53'0 0.0
2014-Aug-30 16:31N 01°15' E 103°53'0 0.0
2014-Aug-30 15:31N 01°15' E 103°53'1 1.4
2014-Aug-30 14:33N 01°14' E 103°54'6 6.3
2014-Aug-30 13:33N 01°15' E 104°00'  
2014-Aug-23 03:33N 34°59' E 140°24'1514.0
2014-Aug-23 02:30N 35°09' E 140°37'1515.9
2014-Aug-23 01:33N 35°19' E 140°51'1615.0
2014-Aug-23 00:30N 35°31' E 141°03'1616.8
2014-Aug-22 23:33N 35°47' E 141°02'1716.7
2014-Aug-22 22:33N 36°03' E 140°57'  

Dump ship's entire track history